sensor_id;sensor_type;location;lat;lon;timestamp;P1;durP1;ratioP1;P2;durP2;ratioP2
5999;SDS011;3028;49.468;7.694;2022-08-19T00:00:21;23.95;;;22.45;;
5999;SDS011;3028;49.468;7.694;2022-08-19T00:02:23;24.42;;;22.85;;
5999;SDS011;3028;49.468;7.694;2022-08-19T00:04:27;22.42;;;21.08;;
5999;SDS011;3028;49.468;7.694;2022-08-19T00:06:31;23.00;;;21.27;;
5999;SDS011;3028;49.468;7.694;2022-08-19T00:08:32;23.92;;;22.23;;
5999;SDS011;3028;49.468;7.694;2022-08-19T00:10:34;23.15;;;21.50;;
5999;SDS011;3028;49.468;7.694;2022-08-19T00:12:35;22.80;;;21.33;;
5999;SDS011;3028;49.468;7.694;2022-08-19T00:14:47;21.92;;;20.45;;
5999;SDS011;3028;49.468;7.694;2022-08-19T00:16:48;24.45;;;22.77;;
5999;SDS011;3028;49.468;7.694;2022-08-19T00:18:53;22.13;;;20.77;;
5999;SDS011;3028;49.468;7.694;2022-08-19T00:20:56;22.40;;;20.90;;
5999;SDS011;3028;49.468;7.694;2022-08-19T00:22:58;23.20;;;21.80;;
5999;SDS011;3028;49.468;7.694;2022-08-19T00:24:59;23.10;;;21.58;;
5999;SDS011;3028;49.468;7.694;2022-08-19T00:27:02;25.08;;;23.35;;
5999;SDS011;3028;49.468;7.694;2022-08-19T00:29:24;24.58;;;22.98;;
5999;SDS011;3028;49.468;7.694;2022-08-19T00:31:26;24.67;;;22.90;;
5999;SDS011;3028;49.468;7.694;2022-08-19T00:33:29;23.77;;;22.33;;
5999;SDS011;3028;49.468;7.694;2022-08-19T00:35:33;24.60;;;22.80;;
5999;SDS011;3028;49.468;7.694;2022-08-19T00:37:35;24.23;;;22.42;;
5999;SDS011;3028;49.468;7.694;2022-08-19T00:39:37;25.08;;;23.23;;
5999;SDS011;3028;49.468;7.694;2022-08-19T00:41:39;22.98;;;21.55;;
5999;SDS011;3028;49.468;7.694;2022-08-19T00:43:41;23.95;;;22.45;;
5999;SDS011;3028;49.468;7.694;2022-08-19T00:45:43;24.45;;;22.95;;
5999;SDS011;3028;49.468;7.694;2022-08-19T00:47:45;24.70;;;23.13;;
5999;SDS011;3028;49.468;7.694;2022-08-19T00:49:47;27.00;;;25.20;;
5999;SDS011;3028;49.468;7.694;2022-08-19T00:52:01;23.45;;;22.02;;
5999;SDS011;3028;49.468;7.694;2022-08-19T00:54:11;23.35;;;21.65;;
5999;SDS011;3028;49.468;7.694;2022-08-19T00:56:13;25.63;;;23.58;;
5999;SDS011;3028;49.468;7.694;2022-08-19T00:58:15;23.20;;;21.80;;
5999;SDS011;3028;49.468;7.694;2022-08-19T01:00:19;25.15;;;23.58;;
5999;SDS011;3028;49.468;7.694;2022-08-19T01:02:21;25.13;;;23.65;;
5999;SDS011;3028;49.468;7.694;2022-08-19T01:04:24;23.50;;;21.98;;
5999;SDS011;3028;49.468;7.694;2022-08-19T01:06:26;24.25;;;22.75;;
5999;SDS011;3028;49.468;7.694;2022-08-19T01:08:28;23.95;;;22.55;;
5999;SDS011;3028;49.468;7.694;2022-08-19T01:10:32;21.63;;;20.25;;
5999;SDS011;3028;49.468;7.694;2022-08-19T01:12:38;24.10;;;22.33;;
5999;SDS011;3028;49.468;7.694;2022-08-19T01:14:40;24.52;;;23.02;;
5999;SDS011;3028;49.468;7.694;2022-08-19T01:16:41;25.02;;;23.40;;
5999;SDS011;3028;49.468;7.694;2022-08-19T01:18:44;22.83;;;21.23;;
5999;SDS011;3028;49.468;7.694;2022-08-19T01:20:46;24.55;;;22.95;;
5999;SDS011;3028;49.468;7.694;2022-08-19T01:22:58;23.52;;;22.13;;
5999;SDS011;3028;49.468;7.694;2022-08-19T01:25:00;24.13;;;22.73;;
5999;SDS011;3028;49.468;7.694;2022-08-19T01:27:06;23.58;;;21.80;;
5999;SDS011;3028;49.468;7.694;2022-08-19T01:29:11;24.67;;;23.08;;
5999;SDS011;3028;49.468;7.694;2022-08-19T01:31:15;23.55;;;21.95;;
5999;SDS011;3028;49.468;7.694;2022-08-19T01:33:27;23.08;;;21.67;;
5999;SDS011;3028;49.468;7.694;2022-08-19T01:35:32;25.38;;;23.67;;
5999;SDS011;3028;49.468;7.694;2022-08-19T01:40:00;24.10;;;22.20;;
5999;SDS011;3028;49.468;7.694;2022-08-19T01:42:01;24.45;;;22.95;;
5999;SDS011;3028;49.468;7.694;2022-08-19T01:44:05;25.08;;;23.45;;
5999;SDS011;3028;49.468;7.694;2022-08-19T01:46:19;22.65;;;21.30;;
5999;SDS011;3028;49.468;7.694;2022-08-19T01:48:25;23.55;;;22.02;;
5999;SDS011;3028;49.468;7.694;2022-08-19T01:50:26;24.73;;;23.00;;
5999;SDS011;3028;49.468;7.694;2022-08-19T01:52:28;24.40;;;22.83;;
5999;SDS011;3028;49.468;7.694;2022-08-19T01:54:30;23.90;;;22.40;;
5999;SDS011;3028;49.468;7.694;2022-08-19T01:56:32;24.08;;;22.48;;
5999;SDS011;3028;49.468;7.694;2022-08-19T01:58:38;22.48;;;21.10;;
5999;SDS011;3028;49.468;7.694;2022-08-19T02:00:43;23.75;;;22.05;;
5999;SDS011;3028;49.468;7.694;2022-08-19T02:02:45;23.33;;;21.92;;
5999;SDS011;3028;49.468;7.694;2022-08-19T02:04:46;23.52;;;22.15;;
5999;SDS011;3028;49.468;7.694;2022-08-19T02:06:49;23.73;;;22.20;;
5999;SDS011;3028;49.468;7.694;2022-08-19T02:08:50;21.63;;;20.38;;
5999;SDS011;3028;49.468;7.694;2022-08-19T02:10:57;23.05;;;21.67;;
5999;SDS011;3028;49.468;7.694;2022-08-19T02:12:59;24.65;;;22.85;;
5999;SDS011;3028;49.468;7.694;2022-08-19T02:15:00;23.25;;;21.58;;
5999;SDS011;3028;49.468;7.694;2022-08-19T02:17:03;23.27;;;21.88;;
5999;SDS011;3028;49.468;7.694;2022-08-19T02:19:05;22.75;;;20.95;;
5999;SDS011;3028;49.468;7.694;2022-08-19T02:21:07;22.95;;;21.45;;
5999;SDS011;3028;49.468;7.694;2022-08-19T02:23:09;24.70;;;23.13;;
5999;SDS011;3028;49.468;7.694;2022-08-19T02:25:16;22.80;;;21.42;;
5999;SDS011;3028;49.468;7.694;2022-08-19T02:27:17;24.02;;;22.55;;
5999;SDS011;3028;49.468;7.694;2022-08-19T02:29:19;24.23;;;22.60;;
5999;SDS011;3028;49.468;7.694;2022-08-19T02:31:22;22.73;;;21.33;;
5999;SDS011;3028;49.468;7.694;2022-08-19T02:33:26;22.00;;;20.70;;
5999;SDS011;3028;49.468;7.694;2022-08-19T02:35:28;22.67;;;20.73;;
5999;SDS011;3028;49.468;7.694;2022-08-19T02:37:29;22.85;;;21.17;;
5999;SDS011;3028;49.468;7.694;2022-08-19T02:39:50;22.20;;;20.90;;
5999;SDS011;3028;49.468;7.694;2022-08-19T02:41:51;22.30;;;20.95;;
5999;SDS011;3028;49.468;7.694;2022-08-19T02:43:54;23.10;;;21.70;;
5999;SDS011;3028;49.468;7.694;2022-08-19T02:48:22;22.13;;;20.83;;
5999;SDS011;3028;49.468;7.694;2022-08-19T02:50:25;20.30;;;19.02;;
5999;SDS011;3028;49.468;7.694;2022-08-19T02:52:26;21.13;;;19.92;;
5999;SDS011;3028;49.468;7.694;2022-08-19T02:54:29;20.50;;;19.27;;
5999;SDS011;3028;49.468;7.694;2022-08-19T02:56:31;22.17;;;20.88;;
5999;SDS011;3028;49.468;7.694;2022-08-19T02:58:34;21.30;;;19.90;;
5999;SDS011;3028;49.468;7.694;2022-08-19T03:00:40;20.52;;;19.33;;
5999;SDS011;3028;49.468;7.694;2022-08-19T03:02:50;21.10;;;19.70;;
5999;SDS011;3028;49.468;7.694;2022-08-19T03:04:52;22.05;;;20.25;;
5999;SDS011;3028;49.468;7.694;2022-08-19T03:06:53;20.05;;;18.60;;
5999;SDS011;3028;49.468;7.694;2022-08-19T03:08:59;21.92;;;20.27;;
5999;SDS011;3028;49.468;7.694;2022-08-19T03:11:01;20.05;;;18.75;;
5999;SDS011;3028;49.468;7.694;2022-08-19T03:13:03;20.83;;;19.63;;
5999;SDS011;3028;49.468;7.694;2022-08-19T03:15:05;20.45;;;19.25;;
5999;SDS011;3028;49.468;7.694;2022-08-19T03:17:08;19.92;;;18.73;;
5999;SDS011;3028;49.468;7.694;2022-08-19T03:19:10;19.20;;;18.05;;
5999;SDS011;3028;49.468;7.694;2022-08-19T03:21:45;19.85;;;18.50;;
5999;SDS011;3028;49.468;7.694;2022-08-19T03:23:40;21.98;;;17.58;;
5999;SDS011;3028;49.468;7.694;2022-08-19T03:25:43;19.05;;;17.65;;
5999;SDS011;3028;49.468;7.694;2022-08-19T03:27:46;18.80;;;17.52;;
5999;SDS011;3028;49.468;7.694;2022-08-19T03:29:50;18.92;;;17.73;;
5999;SDS011;3028;49.468;7.694;2022-08-19T03:31:52;19.00;;;17.90;;
5999;SDS011;3028;49.468;7.694;2022-08-19T03:33:54;20.15;;;19.00;;
5999;SDS011;3028;49.468;7.694;2022-08-19T03:36:15;19.88;;;18.60;;
5999;SDS011;3028;49.468;7.694;2022-08-19T03:38:19;19.45;;;18.35;;
5999;SDS011;3028;49.468;7.694;2022-08-19T03:40:20;19.73;;;18.52;;
5999;SDS011;3028;49.468;7.694;2022-08-19T03:42:23;21.10;;;19.55;;
5999;SDS011;3028;49.468;7.694;2022-08-19T03:44:33;18.95;;;17.85;;
5999;SDS011;3028;49.468;7.694;2022-08-19T03:46:37;18.85;;;17.75;;
5999;SDS011;3028;49.468;7.694;2022-08-19T03:48:44;20.13;;;18.42;;
5999;SDS011;3028;49.468;7.694;2022-08-19T03:50:46;20.05;;;18.65;;
5999;SDS011;3028;49.468;7.694;2022-08-19T03:52:50;20.30;;;19.08;;
5999;SDS011;3028;49.468;7.694;2022-08-19T03:54:52;17.08;;;16.00;;
5999;SDS011;3028;49.468;7.694;2022-08-19T03:56:54;19.55;;;17.95;;
5999;SDS011;3028;49.468;7.694;2022-08-19T03:58:58;19.95;;;18.75;;
5999;SDS011;3028;49.468;7.694;2022-08-19T04:01:00;17.55;;;16.20;;
5999;SDS011;3028;49.468;7.694;2022-08-19T04:03:02;18.98;;;17.42;;
5999;SDS011;3028;49.468;7.694;2022-08-19T04:05:04;18.70;;;17.08;;
5999;SDS011;3028;49.468;7.694;2022-08-19T04:07:06;18.65;;;17.23;;
5999;SDS011;3028;49.468;7.694;2022-08-19T04:09:10;18.17;;;17.10;;
5999;SDS011;3028;49.468;7.694;2022-08-19T04:11:13;18.13;;;16.92;;
5999;SDS011;3028;49.468;7.694;2022-08-19T04:13:17;19.27;;;17.85;;
5999;SDS011;3028;49.468;7.694;2022-08-19T04:15:19;20.23;;;18.55;;
5999;SDS011;3028;49.468;7.694;2022-08-19T04:17:21;18.83;;;17.67;;
5999;SDS011;3028;49.468;7.694;2022-08-19T04:19:23;17.17;;;16.17;;
5999;SDS011;3028;49.468;7.694;2022-08-19T04:21:25;18.02;;;16.85;;
5999;SDS011;3028;49.468;7.694;2022-08-19T04:23:28;16.73;;;15.52;;
5999;SDS011;3028;49.468;7.694;2022-08-19T04:25:34;18.30;;;17.15;;
5999;SDS011;3028;49.468;7.694;2022-08-19T04:27:39;18.17;;;17.08;;
5999;SDS011;3028;49.468;7.694;2022-08-19T04:29:42;20.23;;;18.27;;
5999;SDS011;3028;49.468;7.694;2022-08-19T04:31:45;16.80;;;15.70;;
5999;SDS011;3028;49.468;7.694;2022-08-19T04:33:47;15.70;;;14.80;;
5999;SDS011;3028;49.468;7.694;2022-08-19T04:35:49;15.95;;;14.98;;
5999;SDS011;3028;49.468;7.694;2022-08-19T04:37:52;17.00;;;15.80;;
5999;SDS011;3028;49.468;7.694;2022-08-19T04:39:53;18.10;;;16.88;;
5999;SDS011;3028;49.468;7.694;2022-08-19T04:42:14;17.92;;;16.83;;
5999;SDS011;3028;49.468;7.694;2022-08-19T04:44:35;16.70;;;15.60;;
5999;SDS011;3028;49.468;7.694;2022-08-19T04:46:46;17.45;;;16.25;;
5999;SDS011;3028;49.468;7.694;2022-08-19T04:48:51;16.75;;;15.25;;
5999;SDS011;3028;49.468;7.694;2022-08-19T04:50:55;17.60;;;16.13;;
5999;SDS011;3028;49.468;7.694;2022-08-19T04:53:00;17.65;;;16.33;;
5999;SDS011;3028;49.468;7.694;2022-08-19T04:55:02;16.38;;;15.25;;
5999;SDS011;3028;49.468;7.694;2022-08-19T04:57:04;17.80;;;16.73;;
5999;SDS011;3028;49.468;7.694;2022-08-19T04:59:08;15.80;;;14.80;;
5999;SDS011;3028;49.468;7.694;2022-08-19T05:01:13;18.35;;;17.02;;
5999;SDS011;3028;49.468;7.694;2022-08-19T05:03:18;17.63;;;16.45;;
5999;SDS011;3028;49.468;7.694;2022-08-19T05:05:20;17.17;;;15.98;;
5999;SDS011;3028;49.468;7.694;2022-08-19T05:07:22;16.15;;;15.15;;
5999;SDS011;3028;49.468;7.694;2022-08-19T05:09:24;17.05;;;16.05;;
5999;SDS011;3028;49.468;7.694;2022-08-19T05:11:27;16.38;;;15.48;;
5999;SDS011;3028;49.468;7.694;2022-08-19T05:13:30;15.65;;;14.48;;
5999;SDS011;3028;49.468;7.694;2022-08-19T05:15:32;17.42;;;15.95;;
5999;SDS011;3028;49.468;7.694;2022-08-19T05:17:34;15.93;;;14.82;;
5999;SDS011;3028;49.468;7.694;2022-08-19T05:19:39;17.15;;;16.08;;
5999;SDS011;3028;49.468;7.694;2022-08-19T05:21:59;17.52;;;16.15;;
5999;SDS011;3028;49.468;7.694;2022-08-19T05:24:22;15.63;;;14.63;;
5999;SDS011;3028;49.468;7.694;2022-08-19T05:26:25;17.42;;;16.33;;
5999;SDS011;3028;49.468;7.694;2022-08-19T05:28:27;17.52;;;16.48;;
5999;SDS011;3028;49.468;7.694;2022-08-19T05:30:31;18.02;;;16.98;;
5999;SDS011;3028;49.468;7.694;2022-08-19T05:32:48;19.13;;;17.70;;
5999;SDS011;3028;49.468;7.694;2022-08-19T05:34:54;18.60;;;16.95;;
5999;SDS011;3028;49.468;7.694;2022-08-19T05:36:56;18.80;;;17.23;;
5999;SDS011;3028;49.468;7.694;2022-08-19T05:38:59;18.13;;;16.92;;
5999;SDS011;3028;49.468;7.694;2022-08-19T05:41:09;18.13;;;16.58;;
5999;SDS011;3028;49.468;7.694;2022-08-19T05:43:13;17.98;;;16.88;;
5999;SDS011;3028;49.468;7.694;2022-08-19T05:45:17;17.35;;;16.27;;
5999;SDS011;3028;49.468;7.694;2022-08-19T05:47:19;18.65;;;17.45;;
5999;SDS011;3028;49.468;7.694;2022-08-19T05:49:22;17.90;;;16.65;;
5999;SDS011;3028;49.468;7.694;2022-08-19T05:51:24;19.23;;;17.92;;
5999;SDS011;3028;49.468;7.694;2022-08-19T05:53:29;18.65;;;17.13;;
5999;SDS011;3028;49.468;7.694;2022-08-19T05:55:31;17.67;;;16.52;;
5999;SDS011;3028;49.468;7.694;2022-08-19T05:57:33;18.35;;;16.98;;
5999;SDS011;3028;49.468;7.694;2022-08-19T05:59:34;18.13;;;17.05;;
5999;SDS011;3028;49.468;7.694;2022-08-19T06:01:40;20.08;;;18.52;;
5999;SDS011;3028;49.468;7.694;2022-08-19T06:03:43;16.85;;;15.65;;
5999;SDS011;3028;49.468;7.694;2022-08-19T06:05:45;16.85;;;15.65;;
5999;SDS011;3028;49.468;7.694;2022-08-19T06:07:52;16.42;;;15.40;;
5999;SDS011;3028;49.468;7.694;2022-08-19T06:09:54;14.63;;;13.73;;
5999;SDS011;3028;49.468;7.694;2022-08-19T06:12:01;16.30;;;14.93;;
5999;SDS011;3028;49.468;7.694;2022-08-19T06:14:05;15.85;;;14.75;;
5999;SDS011;3028;49.468;7.694;2022-08-19T06:16:17;13.07;;;12.18;;
5999;SDS011;3028;49.468;7.694;2022-08-19T06:18:23;13.73;;;12.73;;
5999;SDS011;3028;49.468;7.694;2022-08-19T06:20:25;16.33;;;14.68;;
5999;SDS011;3028;49.468;7.694;2022-08-19T06:22:47;14.20;;;12.75;;
5999;SDS011;3028;49.468;7.694;2022-08-19T06:24:53;12.68;;;11.80;;
5999;SDS011;3028;49.468;7.694;2022-08-19T06:26:56;14.15;;;13.00;;
5999;SDS011;3028;49.468;7.694;2022-08-19T06:29:02;12.63;;;11.70;;
5999;SDS011;3028;49.468;7.694;2022-08-19T06:31:07;16.38;;;11.07;;
5999;SDS011;3028;49.468;7.694;2022-08-19T06:33:10;12.10;;;11.20;;
5999;SDS011;3028;49.468;7.694;2022-08-19T06:35:12;10.63;;;9.80;;
5999;SDS011;3028;49.468;7.694;2022-08-19T06:37:15;13.40;;;12.27;;
5999;SDS011;3028;49.468;7.694;2022-08-19T06:39:19;13.18;;;12.27;;
5999;SDS011;3028;49.468;7.694;2022-08-19T06:41:23;11.40;;;10.57;;
5999;SDS011;3028;49.468;7.694;2022-08-19T06:43:25;13.95;;;12.93;;
5999;SDS011;3028;49.468;7.694;2022-08-19T06:45:29;12.68;;;11.52;;
5999;SDS011;3028;49.468;7.694;2022-08-19T06:47:39;12.10;;;11.30;;
5999;SDS011;3028;49.468;7.694;2022-08-19T06:49:41;11.18;;;10.15;;
5999;SDS011;3028;49.468;7.694;2022-08-19T06:51:45;14.20;;;13.02;;
5999;SDS011;3028;49.468;7.694;2022-08-19T06:53:50;12.38;;;11.48;;
5999;SDS011;3028;49.468;7.694;2022-08-19T06:55:53;11.63;;;10.93;;
5999;SDS011;3028;49.468;7.694;2022-08-19T06:58:01;13.25;;;12.00;;
5999;SDS011;3028;49.468;7.694;2022-08-19T07:00:05;12.95;;;11.93;;
5999;SDS011;3028;49.468;7.694;2022-08-19T07:02:13;11.75;;;10.93;;
5999;SDS011;3028;49.468;7.694;2022-08-19T07:04:16;11.38;;;10.50;;
5999;SDS011;3028;49.468;7.694;2022-08-19T07:06:19;12.50;;;11.50;;
5999;SDS011;3028;49.468;7.694;2022-08-19T07:08:41;14.40;;;13.27;;
5999;SDS011;3028;49.468;7.694;2022-08-19T07:10:44;14.95;;;13.95;;
5999;SDS011;3028;49.468;7.694;2022-08-19T07:12:46;11.60;;;10.90;;
5999;SDS011;3028;49.468;7.694;2022-08-19T07:14:50;12.95;;;12.10;;
5999;SDS011;3028;49.468;7.694;2022-08-19T07:16:53;13.07;;;11.70;;
5999;SDS011;3028;49.468;7.694;2022-08-19T07:18:58;13.57;;;12.32;;
5999;SDS011;3028;49.468;7.694;2022-08-19T07:21:17;13.43;;;12.43;;
5999;SDS011;3028;49.468;7.694;2022-08-19T07:23:23;15.00;;;13.68;;
5999;SDS011;3028;49.468;7.694;2022-08-19T07:25:25;14.85;;;13.90;;
5999;SDS011;3028;49.468;7.694;2022-08-19T07:27:33;11.98;;;11.18;;
5999;SDS011;3028;49.468;7.694;2022-08-19T07:29:35;12.48;;;11.57;;
5999;SDS011;3028;49.468;7.694;2022-08-19T07:31:38;13.43;;;12.32;;
5999;SDS011;3028;49.468;7.694;2022-08-19T07:33:44;12.20;;;10.98;;
5999;SDS011;3028;49.468;7.694;2022-08-19T07:35:47;12.00;;;11.18;;
5999;SDS011;3028;49.468;7.694;2022-08-19T07:37:50;11.25;;;10.45;;
5999;SDS011;3028;49.468;7.694;2022-08-19T07:39:52;11.07;;;10.38;;
5999;SDS011;3028;49.468;7.694;2022-08-19T07:41:54;11.57;;;10.45;;
5999;SDS011;3028;49.468;7.694;2022-08-19T07:44:00;12.40;;;11.50;;
5999;SDS011;3028;49.468;7.694;2022-08-19T07:46:10;13.13;;;12.02;;
5999;SDS011;3028;49.468;7.694;2022-08-19T07:48:13;11.88;;;11.07;;
5999;SDS011;3028;49.468;7.694;2022-08-19T07:50:16;10.63;;;10.00;;
5999;SDS011;3028;49.468;7.694;2022-08-19T07:52:21;10.32;;;9.65;;
5999;SDS011;3028;49.468;7.694;2022-08-19T07:54:24;9.50;;;8.80;;
5999;SDS011;3028;49.468;7.694;2022-08-19T07:56:28;11.77;;;10.77;;
5999;SDS011;3028;49.468;7.694;2022-08-19T07:58:30;11.07;;;10.27;;
5999;SDS011;3028;49.468;7.694;2022-08-19T08:00:33;8.60;;;8.00;;
5999;SDS011;3028;49.468;7.694;2022-08-19T08:02:36;10.48;;;9.88;;
5999;SDS011;3028;49.468;7.694;2022-08-19T08:04:39;9.98;;;9.25;;
5999;SDS011;3028;49.468;7.694;2022-08-19T08:07:00;8.68;;;8.13;;
5999;SDS011;3028;49.468;7.694;2022-08-19T08:09:29;9.93;;;9.23;;
5999;SDS011;3028;49.468;7.694;2022-08-19T08:11:40;10.50;;;9.52;;
5999;SDS011;3028;49.468;7.694;2022-08-19T08:13:43;10.25;;;9.13;;
5999;SDS011;3028;49.468;7.694;2022-08-19T08:15:44;8.23;;;7.63;;
5999;SDS011;3028;49.468;7.694;2022-08-19T08:17:46;10.75;;;10.00;;
5999;SDS011;3028;49.468;7.694;2022-08-19T08:19:52;9.73;;;9.02;;
5999;SDS011;3028;49.468;7.694;2022-08-19T08:21:55;9.35;;;8.75;;
5999;SDS011;3028;49.468;7.694;2022-08-19T08:23:58;12.27;;;11.27;;
5999;SDS011;3028;49.468;7.694;2022-08-19T08:26:00;12.18;;;10.85;;
5999;SDS011;3028;49.468;7.694;2022-08-19T08:28:03;11.68;;;10.68;;
5999;SDS011;3028;49.468;7.694;2022-08-19T08:30:09;13.50;;;12.57;;
5999;SDS011;3028;49.468;7.694;2022-08-19T08:32:12;13.98;;;13.07;;
5999;SDS011;3028;49.468;7.694;2022-08-19T08:34:15;13.88;;;12.88;;
5999;SDS011;3028;49.468;7.694;2022-08-19T08:36:17;14.05;;;12.73;;
5999;SDS011;3028;49.468;7.694;2022-08-19T08:38:19;13.65;;;12.65;;
5999;SDS011;3028;49.468;7.694;2022-08-19T08:42:27;13.18;;;12.05;;
5999;SDS011;3028;49.468;7.694;2022-08-19T08:44:42;13.52;;;12.63;;
5999;SDS011;3028;49.468;7.694;2022-08-19T08:46:56;11.95;;;11.00;;
5999;SDS011;3028;49.468;7.694;2022-08-19T08:49:06;11.70;;;10.93;;
5999;SDS011;3028;49.468;7.694;2022-08-19T08:52:02;12.50;;;11.52;;
5999;SDS011;3028;49.468;7.694;2022-08-19T08:53:48;11.57;;;10.77;;
5999;SDS011;3028;49.468;7.694;2022-08-19T08:55:56;12.20;;;10.23;;
5999;SDS011;3028;49.468;7.694;2022-08-19T08:58:01;10.07;;;9.20;;
5999;SDS011;3028;49.468;7.694;2022-08-19T09:02:31;9.52;;;8.55;;
5999;SDS011;3028;49.468;7.694;2022-08-19T09:04:34;8.90;;;8.00;;
5999;SDS011;3028;49.468;7.694;2022-08-19T09:06:39;11.98;;;6.22;;
5999;SDS011;3028;49.468;7.694;2022-08-19T09:13:49;6.55;;;5.55;;
5999;SDS011;3028;49.468;7.694;2022-08-19T09:16:32;6.03;;;5.63;;
5999;SDS011;3028;49.468;7.694;2022-08-19T09:18:55;4.45;;;4.15;;
5999;SDS011;3028;49.468;7.694;2022-08-19T09:21:00;4.85;;;4.38;;
5999;SDS011;3028;49.468;7.694;2022-08-19T09:23:10;5.43;;;4.93;;
5999;SDS011;3028;49.468;7.694;2022-08-19T09:25:13;4.55;;;4.25;;
5999;SDS011;3028;49.468;7.694;2022-08-19T09:27:19;4.57;;;4.28;;
5999;SDS011;3028;49.468;7.694;2022-08-19T09:29:41;8.02;;;3.78;;
5999;SDS011;3028;49.468;7.694;2022-08-19T09:31:43;4.93;;;4.43;;
5999;SDS011;3028;49.468;7.694;2022-08-19T09:33:48;4.32;;;4.03;;
5999;SDS011;3028;49.468;7.694;2022-08-19T09:36:01;4.97;;;4.60;;
5999;SDS011;3028;49.468;7.694;2022-08-19T09:38:08;5.68;;;5.07;;
5999;SDS011;3028;49.468;7.694;2022-08-19T09:40:11;5.57;;;5.05;;
5999;SDS011;3028;49.468;7.694;2022-08-19T09:42:13;8.98;;;4.72;;
5999;SDS011;3028;49.468;7.694;2022-08-19T09:44:29;4.57;;;4.28;;
5999;SDS011;3028;49.468;7.694;2022-08-19T09:46:31;4.93;;;4.60;;
5999;SDS011;3028;49.468;7.694;2022-08-19T09:48:33;6.30;;;5.85;;
5999;SDS011;3028;49.468;7.694;2022-08-19T09:50:34;5.28;;;4.80;;
5999;SDS011;3028;49.468;7.694;2022-08-19T09:52:52;5.30;;;4.90;;
5999;SDS011;3028;49.468;7.694;2022-08-19T09:54:57;4.90;;;4.50;;
5999;SDS011;3028;49.468;7.694;2022-08-19T09:56:59;5.68;;;4.70;;
5999;SDS011;3028;49.468;7.694;2022-08-19T09:59:06;8.57;;;4.85;;
5999;SDS011;3028;49.468;7.694;2022-08-19T10:01:15;5.25;;;4.75;;
5999;SDS011;3028;49.468;7.694;2022-08-19T10:03:25;5.90;;;5.20;;
5999;SDS011;3028;49.468;7.694;2022-08-19T10:05:30;3.92;;;3.65;;
5999;SDS011;3028;49.468;7.694;2022-08-19T10:07:50;4.53;;;4.07;;
5999;SDS011;3028;49.468;7.694;2022-08-19T10:09:57;4.35;;;3.95;;
5999;SDS011;3028;49.468;7.694;2022-08-19T10:12:02;4.07;;;3.75;;
5999;SDS011;3028;49.468;7.694;2022-08-19T10:14:06;4.55;;;4.15;;
5999;SDS011;3028;49.468;7.694;2022-08-19T10:16:09;4.53;;;4.13;;
5999;SDS011;3028;49.468;7.694;2022-08-19T10:18:16;5.20;;;3.50;;
5999;SDS011;3028;49.468;7.694;2022-08-19T10:20:19;4.35;;;3.72;;
5999;SDS011;3028;49.468;7.694;2022-08-19T10:22:21;3.92;;;3.63;;
5999;SDS011;3028;49.468;7.694;2022-08-19T10:24:26;3.38;;;3.13;;
5999;SDS011;3028;49.468;7.694;2022-08-19T10:26:30;3.17;;;2.97;;
5999;SDS011;3028;49.468;7.694;2022-08-19T10:28:34;3.63;;;2.90;;
5999;SDS011;3028;49.468;7.694;2022-08-19T10:30:39;6.47;;;3.42;;
5999;SDS011;3028;49.468;7.694;2022-08-19T10:32:41;5.10;;;2.75;;
5999;SDS011;3028;49.468;7.694;2022-08-19T10:34:46;3.42;;;3.13;;
5999;SDS011;3028;49.468;7.694;2022-08-19T10:36:49;3.42;;;3.22;;
5999;SDS011;3028;49.468;7.694;2022-08-19T10:38:57;2.80;;;2.60;;
5999;SDS011;3028;49.468;7.694;2022-08-19T10:41:07;2.80;;;2.60;;
5999;SDS011;3028;49.468;7.694;2022-08-19T10:43:09;2.70;;;2.50;;
5999;SDS011;3028;49.468;7.694;2022-08-19T10:45:13;2.97;;;2.33;;
5999;SDS011;3028;49.468;7.694;2022-08-19T10:47:15;3.08;;;2.30;;
5999;SDS011;3028;49.468;7.694;2022-08-19T10:49:24;2.25;;;2.05;;
5999;SDS011;3028;49.468;7.694;2022-08-19T10:51:28;3.60;;;3.10;;
5999;SDS011;3028;49.468;7.694;2022-08-19T10:53:50;2.20;;;2.08;;
5999;SDS011;3028;49.468;7.694;2022-08-19T10:55:52;6.30;;;2.20;;
5999;SDS011;3028;49.468;7.694;2022-08-19T10:58:13;4.28;;;2.63;;
5999;SDS011;3028;49.468;7.694;2022-08-19T11:00:16;2.95;;;2.75;;
5999;SDS011;3028;49.468;7.694;2022-08-19T11:02:18;3.03;;;2.42;;
5999;SDS011;3028;49.468;7.694;2022-08-19T11:04:21;2.15;;;2.05;;
5999;SDS011;3028;49.468;7.694;2022-08-19T11:06:32;2.38;;;2.25;;
5999;SDS011;3028;49.468;7.694;2022-08-19T11:08:35;2.90;;;2.70;;
5999;SDS011;3028;49.468;7.694;2022-08-19T11:10:41;3.90;;;2.08;;
5999;SDS011;3028;49.468;7.694;2022-08-19T11:12:50;4.38;;;2.38;;
5999;SDS011;3028;49.468;7.694;2022-08-19T11:14:55;2.95;;;2.38;;
5999;SDS011;3028;49.468;7.694;2022-08-19T11:16:57;4.88;;;2.55;;
5999;SDS011;3028;49.468;7.694;2022-08-19T11:18:59;2.78;;;2.53;;
5999;SDS011;3028;49.468;7.694;2022-08-19T11:23:33;3.97;;;2.70;;
5999;SDS011;3028;49.468;7.694;2022-08-19T11:25:37;2.15;;;1.95;;
5999;SDS011;3028;49.468;7.694;2022-08-19T11:27:40;2.40;;;2.22;;
5999;SDS011;3028;49.468;7.694;2022-08-19T11:29:45;3.65;;;1.88;;
5999;SDS011;3028;49.468;7.694;2022-08-19T11:31:48;2.40;;;2.20;;
5999;SDS011;3028;49.468;7.694;2022-08-19T11:33:50;2.72;;;2.53;;
5999;SDS011;3028;49.468;7.694;2022-08-19T11:35:52;2.38;;;2.28;;
5999;SDS011;3028;49.468;7.694;2022-08-19T11:37:54;2.75;;;2.55;;
5999;SDS011;3028;49.468;7.694;2022-08-19T11:39:59;2.00;;;1.90;;
5999;SDS011;3028;49.468;7.694;2022-08-19T11:42:01;3.28;;;2.95;;
5999;SDS011;3028;49.468;7.694;2022-08-19T11:44:04;3.15;;;2.83;;
5999;SDS011;3028;49.468;7.694;2022-08-19T11:46:06;18.67;;;2.60;;
5999;SDS011;3028;49.468;7.694;2022-08-19T11:48:11;2.67;;;2.15;;
5999;SDS011;3028;49.468;7.694;2022-08-19T11:50:12;2.35;;;2.10;;
5999;SDS011;3028;49.468;7.694;2022-08-19T11:52:15;2.33;;;2.13;;
5999;SDS011;3028;49.468;7.694;2022-08-19T11:54:16;2.40;;;2.22;;
5999;SDS011;3028;49.468;7.694;2022-08-19T11:56:18;2.47;;;2.38;;
5999;SDS011;3028;49.468;7.694;2022-08-19T11:58:20;5.57;;;2.92;;
5999;SDS011;3028;49.468;7.694;2022-08-19T12:00:22;2.47;;;2.28;;
5999;SDS011;3028;49.468;7.694;2022-08-19T12:02:23;3.15;;;2.40;;
5999;SDS011;3028;49.468;7.694;2022-08-19T12:04:25;2.92;;;2.53;;
5999;SDS011;3028;49.468;7.694;2022-08-19T12:06:27;2.53;;;2.33;;
5999;SDS011;3028;49.468;7.694;2022-08-19T12:08:30;5.53;;;2.53;;
5999;SDS011;3028;49.468;7.694;2022-08-19T12:10:32;3.10;;;2.90;;
5999;SDS011;3028;49.468;7.694;2022-08-19T12:12:34;2.42;;;2.33;;
5999;SDS011;3028;49.468;7.694;2022-08-19T12:14:36;2.38;;;2.28;;
5999;SDS011;3028;49.468;7.694;2022-08-19T12:16:38;2.88;;;2.67;;
5999;SDS011;3028;49.468;7.694;2022-08-19T12:18:51;2.85;;;2.65;;
5999;SDS011;3028;49.468;7.694;2022-08-19T12:20:53;3.00;;;2.72;;
5999;SDS011;3028;49.468;7.694;2022-08-19T12:22:55;2.50;;;2.30;;
5999;SDS011;3028;49.468;7.694;2022-08-19T12:25:00;3.17;;;2.55;;
5999;SDS011;3028;49.468;7.694;2022-08-19T12:27:02;3.13;;;2.10;;
5999;SDS011;3028;49.468;7.694;2022-08-19T12:29:04;2.50;;;2.30;;
5999;SDS011;3028;49.468;7.694;2022-08-19T12:31:06;4.30;;;2.65;;
5999;SDS011;3028;49.468;7.694;2022-08-19T12:33:07;3.10;;;2.90;;
5999;SDS011;3028;49.468;7.694;2022-08-19T12:35:09;2.70;;;2.50;;
5999;SDS011;3028;49.468;7.694;2022-08-19T12:37:11;2.40;;;2.22;;
5999;SDS011;3028;49.468;7.694;2022-08-19T12:39:15;3.85;;;2.45;;
5999;SDS011;3028;49.468;7.694;2022-08-19T12:41:18;3.30;;;2.75;;
5999;SDS011;3028;49.468;7.694;2022-08-19T12:43:23;2.38;;;2.28;;
5999;SDS011;3028;49.468;7.694;2022-08-19T12:45:24;4.35;;;3.28;;
5999;SDS011;3028;49.468;7.694;2022-08-19T12:47:26;2.83;;;2.63;;
5999;SDS011;3028;49.468;7.694;2022-08-19T12:49:28;7.80;;;2.42;;
5999;SDS011;3028;49.468;7.694;2022-08-19T12:51:50;5.53;;;3.42;;
5999;SDS011;3028;49.468;7.694;2022-08-19T12:53:53;2.88;;;2.47;;
5999;SDS011;3028;49.468;7.694;2022-08-19T12:55:55;3.50;;;2.90;;
5999;SDS011;3028;49.468;7.694;2022-08-19T12:57:58;2.38;;;2.17;;